createdAt,value
2022-10-03T00:02:11.903Z,10.80
2022-10-03T00:06:15.380Z,10.90
2022-10-03T00:10:16.905Z,10.80
2022-10-03T00:14:18.535Z,10.60
2022-10-03T00:18:43.450Z,10.70
2022-10-03T00:22:58.264Z,10.70
2022-10-03T00:26:59.805Z,10.70
2022-10-03T00:31:01.418Z,10.70
2022-10-03T00:35:14.782Z,10.70
2022-10-03T00:39:19.337Z,10.80
2022-10-03T00:43:30.127Z,10.80
2022-10-03T00:47:34.939Z,10.90
2022-10-03T00:51:45.827Z,10.90
2022-10-03T00:56:07.679Z,11.00
2022-10-03T01:00:15.433Z,10.90
2022-10-03T01:04:35.650Z,10.90
2022-10-03T01:08:58.403Z,10.90
2022-10-03T01:13:13.018Z,10.90
2022-10-03T01:17:14.520Z,10.90
2022-10-03T01:21:37.004Z,10.80
2022-10-03T01:25:58.949Z,10.80
2022-10-03T01:30:21.422Z,10.60
2022-10-03T01:34:52.106Z,10.50
2022-10-03T01:38:58.388Z,10.50
2022-10-03T01:43:26.284Z,10.30
2022-10-03T01:47:37.574Z,10.30
2022-10-03T01:51:57.876Z,10.10
2022-10-03T01:56:05.260Z,10.10
2022-10-03T02:00:23.995Z,10.10
2022-10-03T02:04:28.592Z,9.90
2022-10-03T02:08:35.315Z,9.90
2022-10-03T02:12:36.835Z,9.90
2022-10-03T02:16:39.272Z,9.90
2022-10-03T02:20:59.930Z,9.70
2022-10-03T02:25:05.998Z,9.60
2022-10-03T02:29:19.752Z,9.60
2022-10-03T02:33:27.439Z,9.60
2022-10-03T02:37:46.586Z,9.50
2022-10-03T02:42:07.139Z,9.50
2022-10-03T02:46:14.803Z,9.40
2022-10-03T02:50:28.363Z,9.50
2022-10-03T02:54:50.231Z,9.50
2022-10-03T02:58:51.729Z,9.50
2022-10-03T03:03:04.788Z,9.50
2022-10-03T03:07:09.468Z,9.50
2022-10-03T03:11:30.037Z,9.40
2022-10-03T03:16:05.361Z,9.30
2022-10-03T03:20:33.498Z,9.50
2022-10-03T03:24:55.392Z,9.50
2022-10-03T03:29:12.204Z,9.50
2022-10-03T03:33:23.744Z,9.60
2022-10-03T03:37:34.724Z,9.40
2022-10-03T03:41:43.730Z,9.50
2022-10-03T03:45:51.403Z,9.50
2022-10-03T03:50:02.207Z,9.60
2022-10-03T03:54:19.399Z,9.50
2022-10-03T03:58:21.268Z,9.50
2022-10-03T04:02:27.936Z,9.40
2022-10-03T04:06:36.688Z,9.30
2022-10-03T04:10:38.327Z,9.40
2022-10-03T04:14:42.906Z,9.40
2022-10-03T04:18:59.927Z,9.40
2022-10-03T04:23:10.810Z,9.30
2022-10-03T04:27:30.799Z,9.20
2022-10-03T04:31:49.241Z,9.20
2022-10-03T04:36:09.812Z,9.10
2022-10-03T04:40:21.232Z,9.10
2022-10-03T04:44:32.139Z,9.00
2022-10-03T04:48:49.038Z,9.10
2022-10-03T04:53:03.676Z,9.20
2022-10-03T04:57:15.863Z,9.30
2022-10-03T05:01:29.684Z,9.20
2022-10-03T05:05:40.005Z,9.20
2022-10-03T05:10:03.041Z,9.30
2022-10-03T05:14:11.274Z,9.30
2022-10-03T05:18:15.504Z,9.30
2022-10-03T05:22:31.317Z,9.40
2022-10-03T05:26:45.512Z,9.50
2022-10-03T05:30:57.543Z,9.60
2022-10-03T05:35:17.915Z,9.70
2022-10-03T05:39:29.350Z,9.70
2022-10-03T05:48:19.743Z,9.70
2022-10-03T05:57:18.812Z,9.80
2022-10-03T06:01:42.456Z,9.60
2022-10-03T06:05:45.398Z,9.70
2022-10-03T06:10:18.127Z,9.70
2022-10-03T06:14:39.742Z,9.80
2022-10-03T06:18:53.086Z,9.90
2022-10-03T06:27:39.653Z,10.10
2022-10-03T06:32:17.098Z,10.10
2022-10-03T06:36:30.562Z,10.20
2022-10-03T06:40:52.427Z,10.30
2022-10-03T06:45:24.839Z,10.40
2022-10-03T06:49:29.234Z,10.50
2022-10-03T06:53:40.435Z,10.60
2022-10-03T06:57:57.401Z,10.70
2022-10-03T07:02:17.884Z,10.80
2022-10-03T07:06:39.041Z,11.00
2022-10-03T07:10:52.350Z,11.00
2022-10-03T07:15:13.404Z,11.10
2022-10-03T07:19:34.409Z,11.20
2022-10-03T07:23:42.091Z,11.20
2022-10-03T07:27:46.319Z,11.30
2022-10-03T07:32:10.202Z,11.40
2022-10-03T07:36:49.580Z,11.50
2022-10-03T07:41:03.358Z,11.60
2022-10-03T07:45:20.591Z,11.70
2022-10-03T07:49:41.121Z,11.80
2022-10-03T07:53:48.971Z,12.00
2022-10-03T07:58:05.625Z,12.10
2022-10-03T08:02:10.260Z,12.40
2022-10-03T08:06:11.778Z,12.50
2022-10-03T08:10:31.878Z,12.50
2022-10-03T08:14:36.528Z,12.40
2022-10-03T08:18:44.145Z,12.60
2022-10-03T08:22:58.886Z,12.50
2022-10-03T08:27:00.498Z,12.70
2022-10-03T08:31:17.577Z,12.70
2022-10-03T08:35:22.088Z,12.80
2022-10-03T08:39:33.173Z,12.90
2022-10-03T08:43:34.798Z,13.10
2022-10-03T08:47:42.571Z,13.00
2022-10-03T08:51:44.084Z,13.10
2022-10-03T08:55:56.242Z,13.10
2022-10-03T09:00:00.923Z,13.30
2022-10-03T09:04:11.470Z,13.40
2022-10-03T09:08:45.657Z,13.50
2022-10-03T09:13:06.023Z,13.30
2022-10-03T09:17:26.013Z,13.20
2022-10-03T09:21:37.654Z,13.30
2022-10-03T09:25:58.208Z,13.30
2022-10-03T09:30:19.841Z,13.60
2022-10-03T09:34:37.576Z,13.40
2022-10-03T09:38:58.354Z,13.50
2022-10-03T09:43:20.197Z,13.50
2022-10-03T09:47:40.300Z,13.40
2022-10-03T09:51:52.775Z,13.30
2022-10-03T09:56:03.515Z,13.60
2022-10-03T10:00:13.248Z,14.20
2022-10-03T10:04:14.816Z,14.70
2022-10-03T10:08:34.840Z,14.40
2022-10-03T10:12:45.864Z,14.00
2022-10-03T10:17:04.176Z,14.00
2022-10-03T10:21:24.735Z,14.10
2022-10-03T10:25:46.543Z,14.00
2022-10-03T10:29:48.195Z,14.00
2022-10-03T10:34:23.373Z,14.00
2022-10-03T10:38:44.165Z,14.10
2022-10-03T10:43:06.657Z,14.20
2022-10-03T10:51:32.756Z,14.30
2022-10-03T10:55:47.461Z,14.20
2022-10-03T10:59:49.093Z,14.10
2022-10-03T11:04:03.751Z,14.30
2022-10-03T11:08:11.338Z,14.20
2022-10-03T11:12:32.786Z,14.00
2022-10-03T11:16:55.005Z,14.00
2022-10-03T11:21:29.243Z,14.40
2022-10-03T11:25:59.945Z,14.90
2022-10-03T11:30:16.924Z,15.20
2022-10-03T11:34:37.354Z,14.80
2022-10-03T11:38:57.614Z,14.80
2022-10-03T11:43:18.000Z,14.60
2022-10-03T11:47:27.303Z,14.60
2022-10-03T11:51:52.802Z,14.60
2022-10-03T11:56:15.394Z,14.60
2022-10-03T12:00:19.963Z,14.70
2022-10-03T12:04:50.914Z,14.70
2022-10-03T12:09:04.851Z,15.20
2022-10-03T12:13:15.056Z,15.30
2022-10-03T12:17:21.553Z,15.00
2022-10-03T12:21:23.125Z,14.90
2022-10-03T12:25:30.220Z,15.00
2022-10-03T12:29:33.527Z,14.80
2022-10-03T12:33:42.628Z,14.80
2022-10-03T12:37:47.944Z,14.80
2022-10-03T12:41:49.684Z,15.00
2022-10-03T12:46:02.509Z,15.10
2022-10-03T12:50:16.558Z,15.10
2022-10-03T12:54:18.066Z,15.60
2022-10-03T12:58:38.795Z,15.30
2022-10-03T13:02:47.436Z,15.50
2022-10-03T13:07:08.962Z,16.00
2022-10-03T13:11:25.999Z,15.80
2022-10-03T13:15:40.624Z,15.60
2022-10-03T13:19:51.252Z,15.40
2022-10-03T13:24:05.463Z,15.10
2022-10-03T13:28:22.717Z,15.00
2022-10-03T13:32:24.313Z,15.20
2022-10-03T13:36:46.221Z,15.20
2022-10-03T13:41:06.755Z,15.10
2022-10-03T13:45:15.091Z,15.00
2022-10-03T13:49:21.954Z,15.10
2022-10-03T13:53:30.504Z,15.20
2022-10-03T13:57:51.148Z,15.30
2022-10-03T14:02:03.711Z,15.40
2022-10-03T14:06:10.834Z,15.30
2022-10-03T14:10:31.320Z,15.20
2022-10-03T14:14:34.291Z,15.30
2022-10-03T14:18:35.990Z,15.30
2022-10-03T14:22:45.041Z,15.40
2022-10-03T14:26:57.573Z,15.30
2022-10-03T14:31:14.542Z,15.40
2022-10-03T14:35:38.876Z,15.50
2022-10-03T14:40:01.090Z,15.50
2022-10-03T14:44:12.694Z,15.40
2022-10-03T14:48:18.369Z,15.20
2022-10-03T14:52:28.916Z,15.20
2022-10-03T14:56:33.694Z,15.40
2022-10-03T15:00:46.138Z,15.30
2022-10-03T15:04:48.387Z,15.20
2022-10-03T15:08:53.014Z,15.20
2022-10-03T15:12:58.716Z,15.20
2022-10-03T15:17:01.449Z,15.20
2022-10-03T15:21:05.911Z,15.10
2022-10-03T15:25:18.574Z,15.20
2022-10-03T15:29:20.746Z,15.30
2022-10-03T15:33:25.467Z,15.30
2022-10-03T15:37:29.662Z,15.30
2022-10-03T15:41:49.076Z,15.20
2022-10-03T15:45:51.203Z,15.10
2022-10-03T15:49:55.845Z,15.00
2022-10-03T15:53:58.408Z,15.20
2022-10-03T15:58:12.445Z,15.20
2022-10-03T16:02:20.455Z,15.20
2022-10-03T16:06:32.275Z,15.10
2022-10-03T16:10:39.114Z,15.00
2022-10-03T16:14:43.093Z,14.90
2022-10-03T16:18:50.959Z,14.90
2022-10-03T16:22:54.456Z,15.00
2022-10-03T16:26:57.921Z,14.90
2022-10-03T16:31:01.213Z,15.00
2022-10-03T16:35:03.649Z,14.90
2022-10-03T16:39:06.203Z,14.70
2022-10-03T16:43:11.086Z,14.70
2022-10-03T16:47:12.885Z,14.60
2022-10-03T16:51:18.163Z,14.50
2022-10-03T16:55:26.740Z,14.50
2022-10-03T16:59:29.515Z,14.30
2022-10-03T17:03:36.366Z,14.30
2022-10-03T17:07:48.672Z,14.00
2022-10-03T17:12:00.779Z,13.80
2022-10-03T17:16:11.037Z,13.50
2022-10-03T17:20:15.186Z,13.40
2022-10-03T17:24:20.888Z,13.50
2022-10-03T17:28:29.871Z,13.60
2022-10-03T17:32:34.401Z,13.50
2022-10-03T17:36:45.613Z,13.60
2022-10-03T17:40:47.147Z,13.60
2022-10-03T17:44:59.637Z,13.50
2022-10-03T17:49:10.609Z,13.40
2022-10-03T17:53:18.806Z,13.30
2022-10-03T17:57:34.110Z,13.10
2022-10-03T18:01:39.286Z,13.10
2022-10-03T18:05:45.025Z,13.00
2022-10-03T18:09:47.747Z,13.00
2022-10-03T18:13:52.360Z,12.90
2022-10-03T18:17:57.002Z,12.80
2022-10-03T18:22:03.478Z,12.70
2022-10-03T18:26:20.263Z,12.70
2022-10-03T18:30:27.562Z,12.70
2022-10-03T18:34:38.922Z,12.60
2022-10-03T18:38:41.016Z,12.50
2022-10-03T18:42:45.338Z,12.50
2022-10-03T18:46:50.879Z,12.40
2022-10-03T18:50:56.649Z,12.30
2022-10-03T18:55:01.497Z,12.10
2022-10-03T18:59:08.420Z,12.10
2022-10-03T19:03:15.452Z,11.90
2022-10-03T19:07:20.448Z,12.00
2022-10-03T19:11:22.059Z,12.00
2022-10-03T19:15:33.557Z,11.90
2022-10-03T19:19:35.271Z,11.90
2022-10-03T19:23:38.879Z,11.80
2022-10-03T19:27:45.157Z,11.70
2022-10-03T19:31:53.609Z,11.70
2022-10-03T19:35:57.517Z,11.80
2022-10-03T19:39:59.187Z,11.60
2022-10-03T19:44:20.085Z,11.60
2022-10-03T19:48:22.447Z,11.50
2022-10-03T19:52:34.728Z,11.50
2022-10-03T19:56:36.480Z,11.60
2022-10-03T20:00:39.002Z,11.60
2022-10-03T20:04:40.931Z,11.40
2022-10-03T20:08:45.721Z,11.40
2022-10-03T20:12:49.473Z,11.30
2022-10-03T20:16:52.602Z,11.40
2022-10-03T20:20:55.479Z,11.40
2022-10-03T20:24:58.065Z,11.30
2022-10-03T20:29:12.668Z,11.30
2022-10-03T20:33:20.421Z,11.20
2022-10-03T20:37:37.159Z,11.20
2022-10-03T20:41:42.117Z,11.30
2022-10-03T20:45:45.019Z,11.10
2022-10-03T20:49:54.877Z,10.90
2022-10-03T20:53:56.726Z,10.90
2022-10-03T20:57:58.249Z,10.90
2022-10-03T21:02:02.232Z,10.90
2022-10-03T21:06:14.947Z,11.00
2022-10-03T21:10:25.871Z,11.00
2022-10-03T21:14:28.974Z,11.00
2022-10-03T21:18:35.745Z,10.90
2022-10-03T21:22:37.459Z,10.80
2022-10-03T21:26:47.153Z,10.70
2022-10-03T21:31:01.160Z,10.50
2022-10-03T21:35:23.651Z,10.30
2022-10-03T21:39:28.190Z,10.40
2022-10-03T21:43:44.061Z,10.50
2022-10-03T21:47:50.863Z,10.50
2022-10-03T21:52:11.110Z,10.50
2022-10-03T21:56:15.824Z,10.50
2022-10-03T22:00:19.321Z,10.50
2022-10-03T22:04:23.765Z,10.50
2022-10-03T22:08:39.873Z,10.40
2022-10-03T22:12:42.657Z,10.40
2022-10-03T22:17:00.836Z,10.30
2022-10-03T22:21:02.409Z,10.30
2022-10-03T22:25:14.818Z,10.10
2022-10-03T22:29:34.343Z,10.10
2022-10-03T22:33:44.589Z,10.00
2022-10-03T22:37:46.258Z,9.80
2022-10-03T22:41:54.423Z,9.80
2022-10-03T22:45:57.734Z,9.80
2022-10-03T22:50:04.358Z,9.70
2022-10-03T22:54:11.143Z,9.60
2022-10-03T22:58:13.558Z,9.60
2022-10-03T23:02:16.085Z,9.70
2022-10-03T23:06:30.189Z,9.60
2022-10-03T23:10:40.192Z,9.40
2022-10-03T23:14:44.937Z,9.20
2022-10-03T23:19:06.751Z,9.40
2022-10-03T23:23:13.998Z,9.50
2022-10-03T23:27:15.502Z,9.60
2022-10-03T23:31:35.979Z,9.50
2022-10-03T23:35:42.148Z,9.50
2022-10-03T23:39:55.905Z,9.30
2022-10-03T23:43:58.137Z,9.40
2022-10-03T23:48:01.424Z,9.10
2022-10-03T23:52:04.601Z,9.20
2022-10-03T23:56:08.096Z,9.20
